createdAt,value
2022-12-18T00:03:42.040Z,-1.1
2022-12-18T00:08:45.361Z,-1.0
2022-12-18T00:13:41.662Z,-0.9
2022-12-18T00:18:41.054Z,-0.7
2022-12-18T00:23:40.902Z,-0.6
2022-12-18T00:33:40.406Z,-0.3
2022-12-18T00:38:41.661Z,-0.2
2022-12-18T00:43:39.704Z,-0.1
2022-12-18T00:48:39.057Z,-0.1
2022-12-18T00:53:39.150Z,0.0
2022-12-18T00:58:38.455Z,0.0
2022-12-18T01:03:38.601Z,0.0
2022-12-18T01:08:37.958Z,0.1
2022-12-18T01:13:37.906Z,0.1
2022-12-18T01:18:39.595Z,0.1
2022-12-18T01:23:37.491Z,0.1
2022-12-18T01:28:36.810Z,0.2
2022-12-18T01:33:36.828Z,0.4
2022-12-18T01:43:36.480Z,0.6
2022-12-18T01:48:37.773Z,0.7
2022-12-18T01:53:35.703Z,0.8
2022-12-18T01:58:35.126Z,0.8
2022-12-18T02:03:34.963Z,0.9
2022-12-18T02:08:34.646Z,0.9
2022-12-18T02:18:34.125Z,0.9
2022-12-18T02:23:34.398Z,1.0
2022-12-18T02:28:33.592Z,1.0
2022-12-18T02:29:51.672Z,1.0
2022-12-18T02:38:33.081Z,1.1
2022-12-18T02:39:50.579Z,1.2
2022-12-18T02:43:37.365Z,1.2
2022-12-18T02:48:32.650Z,1.3
2022-12-18T02:53:32.413Z,1.3
2022-12-18T02:58:32.127Z,1.4
2022-12-18T03:03:31.893Z,1.4
2022-12-18T03:08:31.596Z,1.5
2022-12-18T03:13:31.301Z,1.6
2022-12-18T03:18:31.047Z,1.5
2022-12-18T03:23:30.828Z,1.6
2022-12-18T03:28:30.552Z,1.6
2022-12-18T03:33:30.492Z,1.6
2022-12-18T03:38:31.262Z,1.5
2022-12-18T03:43:29.942Z,1.5
2022-12-18T03:48:29.649Z,1.6
2022-12-18T03:53:29.352Z,1.6
2022-12-18T03:58:29.155Z,1.6
2022-12-18T04:03:39.731Z,1.7
2022-12-18T04:08:29.083Z,1.8
2022-12-18T04:13:28.598Z,1.8
2022-12-18T04:18:28.264Z,1.8
2022-12-18T04:23:28.095Z,1.8
2022-12-18T04:28:27.827Z,1.8
2022-12-18T04:33:27.584Z,1.8
2022-12-18T04:38:27.381Z,1.9
2022-12-18T04:43:27.222Z,1.9
2022-12-18T04:48:26.988Z,2.0
2022-12-18T04:53:26.689Z,2.1
2022-12-18T04:58:26.834Z,2.2
2022-12-18T05:03:26.308Z,2.2
2022-12-18T05:08:26.070Z,2.3
2022-12-18T05:13:25.862Z,2.3
2022-12-18T05:18:25.569Z,2.4
2022-12-18T05:23:25.646Z,2.6
2022-12-18T05:33:24.977Z,2.8
2022-12-18T05:38:24.816Z,2.7
2022-12-18T05:43:24.579Z,2.8
2022-12-18T05:48:24.387Z,2.9
2022-12-18T05:53:24.124Z,3.0
2022-12-18T06:08:23.625Z,3.2
2022-12-18T06:13:23.459Z,3.3
2022-12-18T06:18:23.256Z,3.4
2022-12-18T06:23:23.078Z,3.5
2022-12-18T06:28:26.912Z,3.4
2022-12-18T06:33:22.756Z,3.6
2022-12-18T06:38:22.586Z,3.6
2022-12-18T06:43:22.368Z,3.7
2022-12-18T06:48:22.224Z,3.7
2022-12-18T06:53:22.034Z,3.8
2022-12-18T06:58:21.965Z,3.8
2022-12-18T07:03:23.641Z,3.6
2022-12-18T07:08:21.417Z,3.8
2022-12-18T07:13:21.206Z,3.8
2022-12-18T07:18:21.021Z,3.8
2022-12-18T07:23:20.819Z,3.9
2022-12-18T07:28:20.736Z,3.8
2022-12-18T07:33:20.521Z,3.9
2022-12-18T07:38:20.380Z,3.9
2022-12-18T07:43:20.242Z,3.9
2022-12-18T07:48:20.070Z,3.8
2022-12-18T07:53:20.150Z,3.8
2022-12-18T07:58:19.768Z,3.8
2022-12-18T08:03:19.657Z,3.9
2022-12-18T08:13:19.238Z,3.9
2022-12-18T08:18:19.103Z,3.9
2022-12-18T08:23:18.957Z,3.9
2022-12-18T08:28:18.809Z,3.9
2022-12-18T08:33:20.638Z,4.1
2022-12-18T08:38:18.519Z,4.0
2022-12-18T08:43:18.341Z,4.0
2022-12-18T08:48:22.197Z,3.9
2022-12-18T08:53:18.290Z,3.9
2022-12-18T08:58:17.850Z,4.0
2022-12-18T09:08:17.514Z,3.8
2022-12-18T09:13:19.292Z,3.9
2022-12-18T09:18:27.475Z,3.9
2022-12-18T09:23:17.016Z,3.9
2022-12-18T09:28:16.790Z,3.9
2022-12-18T09:33:16.629Z,3.9
2022-12-18T09:38:16.461Z,4.0
2022-12-18T09:43:16.371Z,3.9
2022-12-18T09:48:16.195Z,3.9
2022-12-18T09:53:16.006Z,4.1
2022-12-18T09:58:15.879Z,4.1
2022-12-18T10:03:15.875Z,4.1
2022-12-18T10:08:15.500Z,4.2
2022-12-18T10:13:15.380Z,4.2
2022-12-18T10:18:21.590Z,4.3
2022-12-18T10:23:15.058Z,4.4
2022-12-18T10:28:14.869Z,4.5
2022-12-18T10:33:14.750Z,4.5
2022-12-18T10:38:14.609Z,4.6
2022-12-18T10:48:14.572Z,4.8
2022-12-18T10:53:14.360Z,4.9
2022-12-18T10:58:13.982Z,4.9
2022-12-18T11:03:14.199Z,5.1
2022-12-18T11:08:13.790Z,5.1
2022-12-18T11:13:13.862Z,5.2
2022-12-18T11:18:13.415Z,5.2
2022-12-18T11:23:13.288Z,5.4
2022-12-18T11:28:13.274Z,5.3
2022-12-18T11:33:13.053Z,5.4
2022-12-18T11:38:12.943Z,5.5
2022-12-18T11:43:12.779Z,5.4
2022-12-18T11:48:12.686Z,5.6
2022-12-18T11:53:13.839Z,5.6
2022-12-18T11:58:12.373Z,5.7
2022-12-18T12:08:12.162Z,5.9
2022-12-18T12:13:12.068Z,6.0
2022-12-18T12:18:11.923Z,5.9
2022-12-18T12:23:11.841Z,6.1
2022-12-18T12:28:11.724Z,6.1
2022-12-18T12:33:11.556Z,6.2
2022-12-18T12:38:11.462Z,6.3
2022-12-18T12:43:11.375Z,6.4
2022-12-18T12:48:11.259Z,6.5
2022-12-18T12:53:13.132Z,6.5
2022-12-18T12:58:11.004Z,6.6
2022-12-18T13:03:10.900Z,6.8
2022-12-18T13:08:10.876Z,6.7
2022-12-18T13:13:11.033Z,6.8
2022-12-18T13:18:10.681Z,6.8
2022-12-18T13:23:10.638Z,6.8
2022-12-18T13:28:11.015Z,7.0
2022-12-18T13:33:10.483Z,7.1
2022-12-18T13:38:10.363Z,7.2
2022-12-18T13:43:10.289Z,7.2
2022-12-18T13:48:10.280Z,7.3
2022-12-18T13:53:14.177Z,7.4
2022-12-18T13:58:12.143Z,7.5
2022-12-18T14:08:09.993Z,7.6
2022-12-18T14:13:09.947Z,7.7
2022-12-18T14:18:09.831Z,7.6
2022-12-18T14:23:09.742Z,7.7
2022-12-18T14:28:09.675Z,7.8
2022-12-18T14:33:09.605Z,7.8
2022-12-18T14:38:09.563Z,7.8
2022-12-18T14:43:09.473Z,7.8
2022-12-18T14:48:09.498Z,7.9
2022-12-18T14:53:09.388Z,7.9
2022-12-18T14:58:09.470Z,8.1
2022-12-18T15:03:09.429Z,8.1
2022-12-18T15:08:09.260Z,8.1
2022-12-18T15:13:09.156Z,8.1
2022-12-18T15:18:09.779Z,8.1
2022-12-18T15:23:09.070Z,8.1
2022-12-18T15:28:09.065Z,8.1
2022-12-18T15:33:08.997Z,8.1
2022-12-18T15:38:08.860Z,8.2
2022-12-18T15:43:08.815Z,8.2
2022-12-18T15:48:08.752Z,8.1
2022-12-18T15:53:08.772Z,8.2
2022-12-18T15:58:08.736Z,8.2
2022-12-18T16:03:08.760Z,8.2
2022-12-18T16:08:08.600Z,8.2
2022-12-18T16:13:08.523Z,8.2
2022-12-18T16:18:08.548Z,8.3
2022-12-18T16:28:08.406Z,8.4
2022-12-18T16:33:08.315Z,8.4
2022-12-18T16:38:08.331Z,8.4
2022-12-18T16:43:08.253Z,8.5
2022-12-18T16:48:08.176Z,8.4
2022-12-18T16:53:08.122Z,8.5
2022-12-18T16:58:10.080Z,8.6
2022-12-18T17:03:08.133Z,8.6
2022-12-18T17:08:07.981Z,8.7
2022-12-18T17:13:07.912Z,8.8
2022-12-18T17:18:07.895Z,8.8
2022-12-18T17:23:07.853Z,8.8
2022-12-18T17:28:07.863Z,8.9
2022-12-18T17:33:07.767Z,8.8
2022-12-18T17:38:07.748Z,8.9
2022-12-18T17:43:07.712Z,8.9
2022-12-18T17:53:07.675Z,9.0
2022-12-18T17:58:07.618Z,9.1
2022-12-18T18:03:07.828Z,9.1
2022-12-18T18:08:07.538Z,9.1
2022-12-18T18:13:11.918Z,9.1
2022-12-18T18:18:07.399Z,9.1
2022-12-18T18:23:07.338Z,9.1
2022-12-18T18:28:07.293Z,9.2
2022-12-18T18:33:11.845Z,9.2
2022-12-18T18:38:07.205Z,9.3
2022-12-18T18:43:07.190Z,9.3
2022-12-18T18:48:07.182Z,9.3
2022-12-18T18:53:07.123Z,9.4
2022-12-18T18:58:07.101Z,9.4
2022-12-18T19:03:07.292Z,9.4
2022-12-18T19:08:07.089Z,9.4
2022-12-18T19:13:07.010Z,9.4
2022-12-18T19:18:09.486Z,9.4
2022-12-18T19:23:06.951Z,9.4
2022-12-18T19:33:26.800Z,9.5
2022-12-18T19:38:06.937Z,9.6
2022-12-18T19:43:06.915Z,9.6
2022-12-18T19:48:06.962Z,9.5
2022-12-18T19:53:06.928Z,9.6
2022-12-18T19:58:07.041Z,9.6
2022-12-18T20:03:18.258Z,9.7
2022-12-18T20:08:06.989Z,9.8
2022-12-18T20:13:07.020Z,9.8
2022-12-18T20:18:07.079Z,9.8
2022-12-18T20:23:07.099Z,9.9
2022-12-18T20:28:07.113Z,9.9
2022-12-18T20:33:07.130Z,10.0
2022-12-18T20:38:07.218Z,9.9
2022-12-18T20:43:07.202Z,10.0
2022-12-18T20:48:07.230Z,10.0
2022-12-18T20:53:07.214Z,10.1
2022-12-18T20:58:07.376Z,10.1
2022-12-18T21:03:07.482Z,10.2
2022-12-18T21:08:07.263Z,10.2
2022-12-18T21:13:07.314Z,10.2
2022-12-18T21:18:07.283Z,10.4
2022-12-18T21:23:16.589Z,10.4
2022-12-18T21:28:07.477Z,10.3
2022-12-18T21:33:07.336Z,10.4
2022-12-18T21:38:07.388Z,10.4
2022-12-18T21:43:07.448Z,10.4
2022-12-18T21:48:09.450Z,10.5
2022-12-18T21:53:07.495Z,10.6
2022-12-18T22:03:18.429Z,10.6
2022-12-18T22:08:07.597Z,10.6
2022-12-18T22:13:07.690Z,10.7
2022-12-18T22:18:07.641Z,10.7
2022-12-18T22:23:07.677Z,10.7
2022-12-18T22:28:07.736Z,10.8
2022-12-18T22:33:07.817Z,10.7
2022-12-18T22:38:09.288Z,10.7
2022-12-18T22:43:07.764Z,10.7
2022-12-18T22:53:07.831Z,10.8
2022-12-18T23:03:08.323Z,10.8
2022-12-18T23:08:07.891Z,10.8
2022-12-18T23:18:07.928Z,10.8
2022-12-18T23:23:09.926Z,10.9
2022-12-18T23:28:07.986Z,10.9
2022-12-18T23:33:07.937Z,11.1
2022-12-18T23:38:07.937Z,11.1
2022-12-18T23:43:10.118Z,11.1
2022-12-18T23:48:08.054Z,11.1
2022-12-18T23:53:08.029Z,11.1
2022-12-18T23:58:08.113Z,11.2
